createdAt,value
2022-08-22T00:01:44.688Z,24.92
2022-08-22T00:02:54.937Z,23.79
2022-08-22T00:02:55.386Z,24.42
2022-08-22T00:02:55.723Z,24.51
2022-08-22T00:03:12.558Z,25.72
2022-08-22T00:04:28.811Z,24.84
2022-08-22T00:07:48.338Z,24.76
2022-08-22T00:10:28.137Z,24.76
2022-08-22T00:13:06.345Z,24.78
2022-08-22T00:15:43.457Z,24.80
2022-08-22T00:18:49.940Z,24.83
2022-08-22T00:21:26.508Z,24.85
2022-08-22T00:24:08.201Z,24.90
2022-08-22T00:26:45.803Z,24.95
2022-08-22T00:29:25.575Z,24.99
2022-08-22T00:32:18.936Z,25.02
2022-08-22T00:35:34.874Z,25.06
2022-08-22T00:38:33.175Z,25.10
2022-08-22T00:41:12.922Z,25.11
2022-08-22T00:44:22.970Z,25.11
2022-08-22T00:47:02.753Z,25.12
2022-08-22T00:50:04.407Z,25.11
2022-08-22T00:52:55.070Z,25.03
2022-08-22T00:56:08.608Z,24.89
2022-08-22T00:59:30.752Z,24.71
2022-08-22T01:02:51.867Z,24.58
2022-08-22T01:05:54.746Z,24.57
2022-08-22T01:08:37.088Z,24.57
2022-08-22T01:11:30.553Z,24.54
2022-08-22T01:14:35.046Z,24.53
2022-08-22T01:17:18.781Z,24.54
2022-08-22T01:20:43.409Z,24.56
2022-08-22T01:23:41.349Z,24.55
2022-08-22T01:26:45.567Z,24.53
2022-08-22T01:29:38.414Z,24.54
2022-08-22T01:32:47.651Z,24.53
2022-08-22T01:35:34.362Z,24.57
2022-08-22T01:38:52.606Z,24.59
2022-08-22T01:41:48.937Z,24.57
2022-08-22T01:44:40.459Z,24.55
2022-08-22T01:47:15.867Z,24.53
2022-08-22T01:50:19.095Z,24.49
2022-08-22T01:52:51.045Z,24.45
2022-08-22T01:55:38.854Z,24.40
2022-08-22T01:58:29.955Z,24.41
2022-08-22T02:01:14.037Z,24.44
2022-08-22T02:04:16.146Z,24.47
2022-08-22T02:07:08.247Z,24.49
2022-08-22T02:09:59.870Z,24.49
2022-08-22T02:12:49.746Z,24.46
2022-08-22T02:15:35.848Z,24.48
2022-08-22T02:18:06.681Z,24.49
2022-08-22T02:21:08.441Z,24.49
2022-08-22T02:24:05.184Z,24.48
2022-08-22T02:26:50.472Z,24.49
2022-08-22T02:29:52.731Z,24.42
2022-08-22T02:32:41.997Z,24.26
2022-08-22T02:35:12.866Z,24.17
2022-08-22T02:38:02.921Z,24.18
2022-08-22T02:40:39.183Z,24.22
2022-08-22T02:43:35.762Z,24.28
2022-08-22T02:46:31.643Z,24.35
2022-08-22T02:49:23.676Z,24.38
2022-08-22T02:52:02.701Z,24.36
2022-08-22T02:54:49.255Z,24.32
2022-08-22T02:57:40.623Z,24.25
2022-08-22T03:00:30.837Z,24.26
2022-08-22T03:03:16.095Z,24.23
2022-08-22T03:05:43.851Z,24.21
2022-08-22T03:08:32.402Z,24.16
2022-08-22T03:11:30.165Z,24.00
2022-08-22T03:14:04.074Z,23.79
2022-08-22T03:16:49.247Z,23.67
2022-08-22T03:19:43.513Z,23.60
2022-08-22T03:22:45.394Z,23.43
2022-08-22T03:25:39.990Z,23.24
2022-08-22T03:28:14.984Z,23.28
2022-08-22T03:31:19.236Z,23.36
2022-08-22T03:34:22.520Z,23.50
2022-08-22T03:37:15.486Z,23.64
2022-08-22T03:40:21.574Z,23.77
2022-08-22T03:43:08.663Z,23.90
2022-08-22T03:46:18.355Z,24.00
2022-08-22T03:49:04.751Z,23.98
2022-08-22T03:51:38.720Z,24.02
2022-08-22T03:54:22.046Z,24.11
2022-08-22T03:57:06.219Z,24.25
2022-08-22T04:00:02.015Z,24.47
2022-08-22T04:03:13.916Z,24.71
2022-08-22T04:05:49.664Z,25.06
2022-08-22T04:08:49.276Z,25.36
2022-08-22T04:11:59.947Z,25.54
2022-08-22T04:15:00.279Z,24.95
2022-08-22T04:18:19.849Z,24.37
2022-08-22T04:21:10.238Z,23.87
2022-08-22T04:24:12.416Z,23.72
2022-08-22T04:27:03.321Z,23.68
2022-08-22T04:29:33.851Z,24.62
2022-08-22T04:32:25.578Z,25.53
2022-08-22T04:35:07.074Z,26.17
2022-08-22T04:37:44.451Z,26.55
2022-08-22T04:40:24.805Z,26.35
2022-08-22T04:43:25.546Z,26.07
2022-08-22T04:46:22.619Z,25.85
2022-08-22T04:49:09.915Z,25.85
2022-08-22T04:51:47.786Z,25.90
2022-08-22T04:54:46.406Z,26.00
2022-08-22T04:57:17.140Z,26.30
2022-08-22T04:59:45.956Z,26.56
2022-08-22T05:02:23.123Z,26.62
2022-08-22T05:05:01.821Z,26.45
2022-08-22T05:07:40.011Z,26.29
2022-08-22T05:10:23.424Z,26.28
2022-08-22T05:13:02.182Z,26.37
2022-08-22T05:15:33.913Z,26.45
2022-08-22T05:18:07.947Z,26.49
2022-08-22T05:20:37.043Z,26.53
2022-08-22T05:23:27.611Z,26.53
2022-08-22T05:26:00.321Z,26.46
2022-08-22T05:28:36.400Z,26.38
2022-08-22T05:31:12.846Z,26.30
2022-08-22T05:33:52.003Z,26.19
2022-08-22T05:36:28.789Z,26.09
2022-08-22T05:39:11.703Z,26.45
2022-08-22T05:41:39.845Z,27.28
2022-08-22T05:44:22.556Z,27.86
2022-08-22T05:46:56.257Z,27.95
2022-08-22T05:49:45.321Z,27.99
2022-08-22T05:52:41.488Z,28.34
2022-08-22T05:55:44.746Z,29.09
2022-08-22T05:58:34.728Z,29.66
2022-08-22T06:01:32.243Z,29.90
2022-08-22T06:04:08.245Z,29.95
2022-08-22T06:06:57.146Z,29.98
2022-08-22T06:09:46.270Z,29.85
2022-08-22T06:12:22.841Z,29.54
2022-08-22T06:15:11.906Z,29.23
2022-08-22T06:17:45.709Z,29.01
2022-08-22T06:20:52.488Z,28.87
2022-08-22T06:23:29.667Z,28.78
2022-08-22T06:25:59.888Z,28.85
2022-08-22T06:28:34.112Z,29.03
2022-08-22T06:31:02.419Z,29.52
2022-08-22T06:33:33.485Z,30.20
2022-08-22T06:36:25.085Z,31.19
2022-08-22T06:39:11.175Z,32.40
2022-08-22T06:41:47.604Z,32.97
2022-08-22T06:44:20.701Z,33.00
2022-08-22T06:46:50.148Z,32.87
2022-08-22T06:49:18.000Z,32.70
2022-08-22T06:51:46.030Z,32.31
2022-08-22T06:54:22.123Z,31.77
2022-08-22T06:56:51.895Z,31.16
2022-08-22T06:59:26.724Z,30.63
2022-08-22T07:02:35.802Z,30.13
2022-08-22T07:05:05.556Z,29.61
2022-08-22T07:07:33.339Z,29.39
2022-08-22T07:10:02.138Z,29.30
2022-08-22T07:12:31.911Z,29.28
2022-08-22T07:15:13.396Z,29.30
2022-08-22T07:17:52.144Z,29.28
2022-08-22T07:20:28.201Z,29.24
2022-08-22T07:23:05.215Z,29.16
2022-08-22T07:25:39.449Z,28.98
2022-08-22T07:28:51.598Z,28.70
2022-08-22T07:31:51.202Z,28.44
2022-08-22T07:35:06.646Z,28.35
2022-08-22T07:38:21.731Z,28.25
2022-08-22T07:41:14.899Z,28.13
2022-08-22T07:43:55.114Z,28.10
2022-08-22T07:46:35.768Z,28.14
2022-08-22T07:49:10.168Z,28.12
2022-08-22T07:51:43.639Z,28.17
2022-08-22T07:54:15.228Z,28.26
2022-08-22T07:57:07.229Z,28.37
2022-08-22T07:59:38.617Z,28.55
2022-08-22T08:02:10.907Z,28.72
2022-08-22T08:04:40.577Z,28.85
2022-08-22T08:07:12.273Z,28.86
2022-08-22T08:09:49.696Z,28.81
2022-08-22T08:12:17.517Z,28.92
2022-08-22T08:14:45.563Z,29.13
2022-08-22T08:17:30.038Z,29.14
2022-08-22T08:20:03.956Z,28.97
2022-08-22T08:22:31.803Z,28.82
2022-08-22T08:24:59.756Z,29.02
2022-08-22T08:27:52.586Z,29.25
2022-08-22T08:30:38.041Z,29.57
2022-08-22T08:33:25.630Z,29.78
2022-08-22T08:36:04.866Z,29.63
2022-08-22T08:38:48.671Z,29.56
2022-08-22T08:41:50.426Z,29.80
2022-08-22T08:44:58.778Z,30.02
2022-08-22T08:47:57.121Z,29.65
2022-08-22T08:50:59.530Z,29.40
2022-08-22T08:54:11.393Z,29.31
2022-08-22T09:00:01.024Z,29.30
2022-08-22T09:02:32.012Z,29.54
2022-08-22T09:05:24.468Z,29.50
2022-08-22T09:08:28.070Z,29.52
2022-08-22T09:11:28.154Z,29.79
2022-08-22T09:14:44.340Z,29.80
2022-08-22T09:17:40.622Z,29.78
2022-08-22T09:20:37.401Z,29.92
2022-08-22T09:23:38.718Z,30.02
2022-08-22T09:26:21.638Z,29.91
2022-08-22T09:28:57.016Z,29.86
2022-08-22T09:31:47.997Z,29.85
2022-08-22T09:34:51.453Z,29.83
2022-08-22T09:37:54.717Z,29.81
2022-08-22T09:40:15.240Z,29.21
2022-08-22T09:40:48.246Z,29.91
2022-08-22T09:43:21.118Z,30.08
2022-08-22T09:46:02.273Z,30.18
2022-08-22T09:48:39.403Z,30.08
2022-08-22T09:51:33.342Z,30.04
2022-08-22T09:54:31.536Z,30.15
2022-08-22T09:57:22.521Z,30.20
2022-08-22T10:00:10.829Z,30.10
2022-08-22T10:02:51.325Z,29.87
2022-08-22T10:05:57.325Z,29.77
2022-08-22T10:08:48.544Z,29.58
2022-08-22T10:11:33.685Z,29.50
2022-08-22T10:14:23.055Z,29.53
2022-08-22T10:17:21.849Z,29.52
2022-08-22T10:19:54.409Z,29.45
2022-08-22T10:23:02.464Z,29.26
2022-08-22T10:26:23.025Z,29.21
2022-08-22T10:29:01.412Z,29.49
2022-08-22T10:31:42.833Z,29.80
2022-08-22T10:34:48.522Z,29.97
2022-08-22T10:37:36.896Z,29.97
2022-08-22T10:40:16.818Z,30.04
2022-08-22T10:42:59.799Z,30.02
2022-08-22T10:45:40.731Z,30.01
2022-08-22T10:48:08.899Z,30.00
2022-08-22T10:50:43.473Z,29.79
2022-08-22T10:53:30.747Z,29.33
2022-08-22T10:56:27.316Z,29.20
2022-08-22T10:59:47.836Z,29.07
2022-08-22T11:02:35.253Z,28.94
2022-08-22T11:05:35.285Z,28.87
2022-08-22T11:08:46.727Z,28.67
2022-08-22T11:11:32.632Z,28.58
2022-08-22T11:14:38.157Z,28.69
2022-08-22T11:17:28.791Z,28.96
2022-08-22T11:20:17.043Z,29.19
2022-08-22T11:23:31.813Z,29.44
2022-08-22T11:26:47.086Z,29.67
2022-08-22T11:29:59.344Z,29.76
2022-08-22T11:33:00.407Z,29.73
2022-08-22T11:35:54.627Z,29.65
2022-08-22T11:38:32.562Z,29.51
2022-08-22T11:41:25.649Z,29.36
2022-08-22T11:44:21.078Z,29.29
2022-08-22T11:46:50.726Z,29.18
2022-08-22T11:49:38.637Z,29.07
2022-08-22T11:52:26.365Z,28.96
2022-08-22T11:55:33.178Z,29.09
2022-08-22T11:58:41.324Z,29.16
2022-08-22T12:01:20.086Z,29.11
2022-08-22T12:04:06.752Z,28.89
2022-08-22T12:06:46.849Z,28.73
2022-08-22T12:09:52.083Z,28.64
2022-08-22T12:13:01.494Z,28.64
2022-08-22T12:15:58.064Z,28.82
2022-08-22T12:18:55.848Z,28.98
2022-08-22T12:21:54.784Z,28.98
2022-08-22T12:24:42.501Z,29.04
2022-08-22T12:27:59.632Z,29.03
2022-08-22T12:30:33.692Z,28.95
2022-08-22T12:33:26.946Z,29.06
2022-08-22T12:36:19.187Z,29.24
2022-08-22T12:39:26.933Z,29.33
2022-08-22T12:42:22.772Z,29.34
2022-08-22T12:45:08.151Z,29.25
2022-08-22T12:47:54.419Z,29.22
2022-08-22T12:50:46.803Z,29.24
2022-08-22T12:53:48.715Z,29.31
2022-08-22T12:56:48.161Z,29.34
2022-08-22T12:59:27.584Z,29.38
2022-08-22T13:02:01.060Z,29.42
2022-08-22T13:04:34.316Z,29.45
2022-08-22T13:07:32.988Z,29.46
2022-08-22T13:10:37.764Z,29.39
2022-08-22T13:13:12.033Z,29.42
2022-08-22T13:15:47.063Z,29.43
2022-08-22T13:18:30.546Z,29.41
2022-08-22T13:21:02.473Z,29.35
2022-08-22T13:23:34.403Z,29.35
2022-08-22T13:26:31.756Z,29.32
2022-08-22T13:29:39.552Z,29.38
2022-08-22T13:32:23.545Z,29.50
2022-08-22T13:34:55.926Z,29.62
2022-08-22T13:37:45.003Z,29.72
2022-08-22T13:40:29.496Z,29.63
2022-08-22T13:43:18.488Z,29.49
2022-08-22T13:45:58.538Z,29.30
2022-08-22T13:48:52.544Z,29.19
2022-08-22T13:51:40.407Z,29.08
2022-08-22T13:54:12.130Z,28.93
2022-08-22T13:57:07.740Z,28.97
2022-08-22T14:00:12.664Z,29.08
2022-08-22T14:03:12.230Z,29.13
2022-08-22T14:05:49.788Z,29.16
2022-08-22T14:08:29.944Z,29.23
2022-08-22T14:11:41.193Z,29.23
2022-08-22T14:14:09.349Z,29.09
2022-08-22T14:16:50.799Z,29.06
2022-08-22T14:19:41.036Z,28.96
2022-08-22T14:22:31.700Z,28.98
2022-08-22T14:25:09.371Z,29.05
2022-08-22T14:28:22.229Z,29.01
2022-08-22T14:31:08.213Z,28.81
2022-08-22T14:33:45.085Z,28.73
2022-08-22T14:36:48.785Z,28.78
2022-08-22T14:39:23.380Z,28.68
2022-08-22T14:41:59.370Z,28.64
2022-08-22T14:44:38.487Z,28.62
2022-08-22T14:47:54.481Z,28.60
2022-08-22T14:50:01.165Z,28.58
2022-08-22T14:52:36.375Z,28.54
2022-08-22T14:55:16.634Z,28.51
2022-08-22T14:57:59.980Z,28.54
2022-08-22T15:00:38.823Z,28.59
2022-08-22T15:03:20.684Z,28.61
2022-08-22T15:06:14.537Z,28.62
2022-08-22T15:08:46.267Z,28.66
2022-08-22T15:11:22.124Z,28.54
2022-08-22T15:14:13.544Z,28.50
2022-08-22T15:17:05.437Z,28.48
2022-08-22T15:19:33.544Z,28.44
2022-08-22T15:22:27.568Z,28.40
2022-08-22T15:25:35.496Z,28.33
2022-08-22T15:28:20.221Z,28.23
2022-08-22T15:30:57.784Z,28.11
2022-08-22T15:33:43.337Z,28.03
2022-08-22T15:36:23.451Z,27.99
2022-08-22T15:39:17.315Z,28.00
2022-08-22T15:41:47.313Z,28.04
2022-08-22T15:44:32.122Z,28.11
2022-08-22T15:47:11.663Z,28.19
2022-08-22T15:49:59.975Z,28.33
2022-08-22T15:52:30.900Z,28.43
2022-08-22T15:55:19.876Z,28.51
2022-08-22T15:58:09.183Z,28.60
2022-08-22T16:01:18.953Z,28.60
2022-08-22T16:04:02.726Z,28.50
2022-08-22T16:06:50.495Z,28.53
2022-08-22T16:09:40.762Z,28.52
2022-08-22T16:12:25.891Z,28.47
2022-08-22T16:14:54.520Z,28.46
2022-08-22T16:17:28.449Z,28.45
2022-08-22T16:20:25.792Z,28.43
2022-08-22T16:22:56.886Z,28.34
2022-08-22T16:25:47.625Z,28.26
2022-08-22T16:28:57.877Z,28.19
2022-08-22T16:31:47.115Z,28.05
2022-08-22T16:34:20.756Z,27.91
2022-08-22T16:37:04.146Z,27.70
2022-08-22T16:40:03.507Z,27.34
2022-08-22T16:42:44.639Z,26.91
2022-08-22T16:45:33.174Z,26.43
2022-08-22T16:48:25.443Z,25.90
2022-08-22T16:51:11.298Z,25.48
2022-08-22T16:53:45.970Z,25.47
2022-08-22T16:56:27.203Z,26.04
2022-08-22T16:59:23.358Z,26.60
2022-08-22T17:02:35.128Z,27.02
2022-08-22T17:05:09.443Z,27.35
2022-08-22T17:08:28.468Z,27.58
2022-08-22T17:11:04.774Z,27.79
2022-08-22T17:13:48.335Z,27.88
2022-08-22T17:17:12.700Z,27.97
2022-08-22T17:19:58.929Z,28.04
2022-08-22T17:22:58.194Z,28.00
2022-08-22T17:25:35.898Z,27.87
2022-08-22T17:28:27.316Z,27.27
2022-08-22T17:31:16.582Z,26.43
2022-08-22T17:34:35.575Z,25.79
2022-08-22T17:37:30.311Z,25.28
2022-08-22T17:40:28.444Z,25.55
2022-08-22T17:43:21.590Z,26.18
2022-08-22T17:46:34.285Z,26.48
2022-08-22T17:49:21.197Z,26.68
2022-08-22T17:52:09.583Z,26.77
2022-08-22T17:54:49.546Z,26.78
2022-08-22T17:57:28.008Z,26.73
2022-08-22T18:00:20.550Z,26.69
2022-08-22T18:03:08.979Z,26.73
2022-08-22T18:05:47.104Z,26.82
2022-08-22T18:08:38.453Z,26.91
2022-08-22T18:11:29.020Z,27.00
2022-08-22T18:14:06.110Z,27.08
2022-08-22T18:16:48.682Z,27.13
2022-08-22T18:19:57.075Z,27.17
2022-08-22T18:22:48.341Z,27.15
2022-08-22T18:25:19.487Z,27.10
2022-08-22T18:27:52.537Z,27.06
2022-08-22T18:30:27.802Z,27.04
2022-08-22T18:33:38.276Z,27.03
2022-08-22T18:36:33.175Z,26.93
2022-08-22T18:39:06.795Z,26.85
2022-08-22T18:41:46.008Z,26.82
2022-08-22T18:44:30.570Z,26.57
2022-08-22T18:47:01.141Z,25.64
2022-08-22T18:49:39.711Z,25.13
2022-08-22T18:52:26.112Z,24.99
2022-08-22T18:55:44.010Z,25.25
2022-08-22T18:58:37.106Z,25.47
2022-08-22T19:01:44.353Z,25.63
2022-08-22T19:04:40.730Z,25.85
2022-08-22T19:08:04.816Z,25.99
2022-08-22T19:11:03.303Z,26.06
2022-08-22T19:13:49.907Z,26.19
2022-08-22T19:17:06.517Z,26.31
2022-08-22T19:20:15.545Z,26.44
2022-08-22T19:22:43.613Z,26.57
2022-08-22T19:25:26.633Z,26.66
2022-08-22T19:28:06.992Z,26.70
2022-08-22T19:30:46.231Z,26.69
2022-08-22T19:33:34.545Z,26.70
2022-08-22T19:36:29.007Z,26.64
2022-08-22T19:39:41.811Z,26.48
2022-08-22T19:42:21.019Z,26.39
2022-08-22T19:45:07.317Z,26.33
2022-08-22T19:47:39.576Z,26.33
2022-08-22T19:50:16.966Z,26.36
2022-08-22T19:53:22.923Z,26.39
2022-08-22T19:56:18.131Z,26.44
2022-08-22T19:59:50.876Z,26.48
2022-08-22T20:02:25.338Z,26.44
2022-08-22T20:05:27.750Z,26.47
2022-08-22T20:08:04.748Z,26.44
2022-08-22T20:11:12.186Z,26.46
2022-08-22T20:13:40.089Z,26.47
2022-08-22T20:16:24.099Z,26.48
2022-08-22T20:19:16.116Z,26.44
2022-08-22T20:21:50.275Z,26.41
2022-08-22T20:24:40.280Z,26.38
2022-08-22T20:27:27.854Z,26.38
2022-08-22T20:30:12.209Z,26.33
2022-08-22T20:32:52.382Z,26.29
2022-08-22T20:35:27.449Z,26.28
2022-08-22T20:38:07.467Z,26.31
2022-08-22T20:41:23.783Z,26.32
2022-08-22T20:43:54.943Z,26.24
2022-08-22T20:46:39.142Z,26.17
2022-08-22T20:49:23.685Z,26.14
2022-08-22T20:52:22.387Z,26.14
2022-08-22T20:55:31.321Z,26.16
2022-08-22T20:58:03.703Z,26.14
2022-08-22T21:00:35.669Z,26.03
2022-08-22T21:03:33.107Z,25.94
2022-08-22T21:06:12.441Z,25.87
2022-08-22T21:08:41.126Z,25.80
2022-08-22T21:11:27.934Z,25.70
2022-08-22T21:13:56.004Z,25.61
2022-08-22T21:16:33.042Z,25.52
2022-08-22T21:19:04.157Z,25.49
2022-08-22T21:21:34.042Z,25.44
2022-08-22T21:24:05.092Z,25.35
2022-08-22T21:26:48.921Z,25.32
2022-08-22T21:29:16.789Z,25.38
2022-08-22T21:31:53.809Z,25.39
2022-08-22T21:34:33.996Z,25.34
2022-08-22T21:37:09.982Z,25.36
2022-08-22T21:39:46.614Z,25.28
2022-08-22T21:42:36.432Z,25.12
2022-08-22T21:45:28.376Z,25.11
2022-08-22T21:47:56.669Z,25.20
2022-08-22T21:50:28.237Z,25.27
2022-08-22T21:52:55.951Z,25.34
2022-08-22T21:55:43.208Z,25.40
2022-08-22T21:58:37.003Z,25.48
2022-08-22T22:01:30.756Z,25.54
2022-08-22T22:03:59.768Z,25.53
2022-08-22T22:06:27.780Z,25.57
2022-08-22T22:08:55.955Z,25.62
2022-08-22T22:11:23.926Z,25.66
2022-08-22T22:13:52.400Z,25.70
2022-08-22T22:16:25.007Z,25.71
2022-08-22T22:18:52.843Z,25.75
2022-08-22T22:21:21.426Z,25.80
2022-08-22T22:27:17.251Z,25.81
2022-08-22T22:29:45.339Z,25.75
2022-08-22T22:32:13.305Z,25.70
2022-08-22T22:34:41.693Z,25.63
2022-08-22T22:37:10.062Z,25.62
2022-08-22T22:39:38.819Z,25.65
2022-08-22T22:42:06.917Z,25.66
2022-08-22T22:44:34.694Z,25.68
2022-08-22T22:47:02.856Z,25.67
2022-08-22T22:49:32.159Z,25.66
2022-08-22T22:52:00.851Z,25.67
2022-08-22T22:54:29.710Z,25.63
2022-08-22T22:56:59.626Z,25.60
2022-08-22T22:59:27.716Z,25.60
2022-08-22T23:02:11.797Z,25.61
2022-08-22T23:04:41.710Z,25.62
2022-08-22T23:07:11.096Z,25.64
2022-08-22T23:09:44.891Z,25.63
2022-08-22T23:12:14.257Z,25.61
2022-08-22T23:14:42.258Z,25.64
2022-08-22T23:17:10.014Z,25.67
2022-08-22T23:19:39.044Z,25.67
2022-08-22T23:22:07.995Z,25.69
2022-08-22T23:24:37.509Z,25.73
2022-08-22T23:27:06.654Z,25.78
2022-08-22T23:29:35.624Z,25.83
2022-08-22T23:32:04.579Z,25.86
2022-08-22T23:34:39.510Z,25.88
2022-08-22T23:37:08.228Z,25.92
2022-08-22T23:39:36.407Z,25.95
2022-08-22T23:42:05.164Z,25.95
2022-08-22T23:44:35.070Z,25.87
2022-08-22T23:47:04.609Z,25.78
2022-08-22T23:49:32.749Z,25.68
2022-08-22T23:52:00.727Z,25.53
2022-08-22T23:54:28.790Z,25.38
2022-08-22T23:57:00.701Z,25.30
2022-08-22T23:59:33.536Z,25.31
